createdAt,value
2023-03-31T00:00:43.055Z,11.80
2023-03-31T00:01:43.022Z,11.79
2023-03-31T00:02:42.957Z,11.80
2023-03-31T00:03:43.103Z,11.81
2023-03-31T00:04:42.310Z,11.80
2023-03-31T00:05:42.248Z,11.79
2023-03-31T00:06:42.243Z,11.77
2023-03-31T00:07:42.951Z,11.76
2023-03-31T00:08:42.929Z,11.75
2023-03-31T00:09:42.904Z,11.73
2023-03-31T00:10:42.214Z,11.72
2023-03-31T00:11:42.893Z,11.72
2023-03-31T00:12:42.885Z,11.71
2023-03-31T00:13:42.159Z,11.70
2023-03-31T00:14:42.228Z,11.67
2023-03-31T00:15:42.843Z,11.62
2023-03-31T00:16:42.874Z,11.59
2023-03-31T00:17:42.882Z,11.57
2023-03-31T00:18:42.777Z,11.57
2023-03-31T00:19:42.793Z,11.57
2023-03-31T00:20:42.778Z,11.56
2023-03-31T00:21:43.433Z,11.54
2023-03-31T00:22:43.412Z,11.52
2023-03-31T00:23:42.733Z,11.58
2023-03-31T00:24:42.709Z,11.64
2023-03-31T00:25:42.708Z,11.69
2023-03-31T00:26:42.714Z,11.72
2023-03-31T00:27:42.660Z,11.73
2023-03-31T00:28:42.635Z,11.73
2023-03-31T00:29:42.628Z,11.74
2023-03-31T00:30:42.626Z,11.74
2023-03-31T00:31:42.645Z,11.74
2023-03-31T00:32:43.368Z,11.73
2023-03-31T00:33:42.545Z,11.71
2023-03-31T00:34:42.552Z,11.68
2023-03-31T00:35:42.572Z,11.66
2023-03-31T00:36:42.527Z,11.68
2023-03-31T00:37:42.524Z,11.70
2023-03-31T00:38:42.469Z,11.71
2023-03-31T00:39:42.481Z,11.75
2023-03-31T00:40:42.462Z,11.78
2023-03-31T00:41:42.479Z,11.79
2023-03-31T00:42:42.456Z,11.80
2023-03-31T00:43:42.417Z,11.85
2023-03-31T00:44:41.921Z,11.91
2023-03-31T00:45:42.524Z,11.96
2023-03-31T00:46:42.404Z,12.05
2023-03-31T00:47:42.396Z,12.11
2023-03-31T00:48:42.332Z,12.14
2023-03-31T00:49:42.350Z,12.13
2023-03-31T00:50:42.330Z,12.12
2023-03-31T00:51:42.350Z,12.10
2023-03-31T00:52:42.297Z,12.06
2023-03-31T00:53:42.269Z,12.01
2023-03-31T00:54:42.274Z,11.99
2023-03-31T00:55:43.003Z,11.96
2023-03-31T00:56:42.313Z,11.93
2023-03-31T00:57:42.235Z,11.89
2023-03-31T00:58:42.209Z,11.84
2023-03-31T00:59:42.195Z,11.81
2023-03-31T01:00:42.196Z,11.77
2023-03-31T01:01:41.764Z,11.76
2023-03-31T01:02:41.743Z,11.74
2023-03-31T01:03:42.184Z,11.74
2023-03-31T01:04:42.105Z,11.75
2023-03-31T01:05:42.109Z,11.75
2023-03-31T01:06:42.124Z,11.74
2023-03-31T01:07:42.131Z,11.73
2023-03-31T01:08:41.819Z,11.72
2023-03-31T01:09:42.089Z,11.69
2023-03-31T01:10:41.962Z,11.68
2023-03-31T01:11:42.062Z,11.69
2023-03-31T01:12:42.059Z,11.69
2023-03-31T01:13:42.018Z,11.68
2023-03-31T01:14:41.972Z,11.67
2023-03-31T01:15:41.996Z,11.65
2023-03-31T01:16:42.127Z,11.61
2023-03-31T01:17:42.124Z,11.58
2023-03-31T01:18:42.681Z,11.54
2023-03-31T01:19:42.667Z,11.49
2023-03-31T01:20:42.640Z,11.45
2023-03-31T01:21:42.671Z,11.44
2023-03-31T01:22:42.627Z,11.42
2023-03-31T01:23:41.880Z,11.38
2023-03-31T01:24:42.587Z,11.34
2023-03-31T01:25:41.838Z,11.29
2023-03-31T01:26:42.544Z,11.26
2023-03-31T01:27:41.809Z,11.22
2023-03-31T01:28:42.523Z,11.17
2023-03-31T01:29:41.758Z,11.14
2023-03-31T01:30:42.482Z,11.10
2023-03-31T01:31:41.824Z,11.05
2023-03-31T01:32:42.497Z,11.04
2023-03-31T01:33:41.727Z,11.02
2023-03-31T01:34:42.441Z,10.99
2023-03-31T01:35:41.755Z,10.97
2023-03-31T01:36:41.688Z,10.95
2023-03-31T01:37:41.669Z,10.92
2023-03-31T01:38:41.674Z,10.90
2023-03-31T01:39:41.631Z,10.88
2023-03-31T01:40:41.631Z,10.86
2023-03-31T01:41:42.346Z,10.84
2023-03-31T01:42:41.599Z,10.81
2023-03-31T01:43:41.596Z,10.78
2023-03-31T01:44:41.557Z,10.75
2023-03-31T01:45:41.561Z,10.72
2023-03-31T01:46:41.609Z,10.69
2023-03-31T01:47:41.561Z,10.65
2023-03-31T01:48:41.525Z,10.61
2023-03-31T01:49:41.502Z,10.58
2023-03-31T01:50:41.500Z,10.54
2023-03-31T01:51:41.644Z,10.52
2023-03-31T01:52:42.142Z,10.49
2023-03-31T01:53:41.493Z,10.47
2023-03-31T01:54:41.437Z,10.44
2023-03-31T01:55:41.460Z,10.41
2023-03-31T01:56:42.108Z,10.39
2023-03-31T01:57:41.407Z,10.36
2023-03-31T01:58:41.200Z,10.34
2023-03-31T01:59:41.362Z,10.33
2023-03-31T02:00:41.375Z,10.30
2023-03-31T02:01:41.371Z,10.29
2023-03-31T02:02:41.408Z,10.29
2023-03-31T02:03:41.378Z,10.29
2023-03-31T02:04:42.035Z,10.30
2023-03-31T02:05:41.296Z,10.30
2023-03-31T02:06:41.270Z,10.29
2023-03-31T02:07:41.261Z,10.28
2023-03-31T02:08:41.936Z,10.27
2023-03-31T02:09:41.236Z,10.26
2023-03-31T02:10:40.969Z,10.25
2023-03-31T02:11:40.993Z,10.24
2023-03-31T02:12:40.988Z,10.23
2023-03-31T02:13:40.976Z,10.22
2023-03-31T02:14:40.995Z,10.22
2023-03-31T02:15:41.130Z,10.21
2023-03-31T02:16:41.176Z,10.19
2023-03-31T02:17:41.014Z,10.17
2023-03-31T02:18:41.813Z,10.16
2023-03-31T02:19:41.007Z,10.15
2023-03-31T02:20:40.993Z,10.16
2023-03-31T02:21:41.100Z,10.16
2023-03-31T02:22:40.329Z,10.14
2023-03-31T02:23:41.718Z,10.12
2023-03-31T02:24:41.031Z,10.10
2023-03-31T02:25:41.005Z,10.09
2023-03-31T02:26:41.665Z,10.08
2023-03-31T02:27:41.669Z,10.08
2023-03-31T02:28:40.316Z,10.07
2023-03-31T02:29:40.311Z,10.06
2023-03-31T02:30:40.327Z,10.04
2023-03-31T02:31:40.946Z,10.03
2023-03-31T02:32:41.676Z,10.01
2023-03-31T02:33:40.897Z,10.00
2023-03-31T02:34:40.892Z,10.00
2023-03-31T02:35:41.586Z,10.00
2023-03-31T02:36:40.858Z,10.00
2023-03-31T02:37:40.861Z,9.99
2023-03-31T02:38:40.837Z,9.98
2023-03-31T02:39:40.819Z,9.98
2023-03-31T02:40:40.779Z,9.99
2023-03-31T02:41:40.800Z,9.98
2023-03-31T02:42:40.783Z,9.97
2023-03-31T02:43:40.761Z,9.96
2023-03-31T02:44:40.763Z,9.94
2023-03-31T02:45:40.771Z,9.93
2023-03-31T02:46:40.794Z,9.91
2023-03-31T02:47:40.779Z,9.90
2023-03-31T02:48:40.928Z,9.89
2023-03-31T02:49:40.721Z,9.87
2023-03-31T02:50:40.653Z,9.85
2023-03-31T02:51:41.331Z,9.84
2023-03-31T02:52:41.318Z,9.84
2023-03-31T02:53:41.307Z,9.84
2023-03-31T02:54:40.649Z,9.83
2023-03-31T02:55:40.588Z,9.82
2023-03-31T02:56:40.632Z,9.82
2023-03-31T02:57:40.573Z,9.82
2023-03-31T02:58:40.566Z,9.82
2023-03-31T02:59:40.541Z,9.82
2023-03-31T03:00:40.531Z,9.82
2023-03-31T03:01:40.625Z,9.82
2023-03-31T03:02:40.098Z,9.82
2023-03-31T03:03:41.170Z,9.82
2023-03-31T03:04:40.475Z,9.82
2023-03-31T03:05:40.464Z,9.84
2023-03-31T03:06:40.433Z,9.85
2023-03-31T03:07:40.439Z,9.85
2023-03-31T03:08:40.025Z,9.85
2023-03-31T03:09:40.404Z,9.85
2023-03-31T03:10:40.392Z,9.85
2023-03-31T03:11:40.362Z,9.84
2023-03-31T03:12:40.367Z,9.83
2023-03-31T03:13:40.352Z,9.83
2023-03-31T03:14:40.367Z,9.83
2023-03-31T03:15:40.332Z,9.83
2023-03-31T03:16:40.301Z,9.83
2023-03-31T03:17:40.546Z,9.83
2023-03-31T03:18:40.282Z,9.83
2023-03-31T03:19:40.287Z,9.82
2023-03-31T03:20:40.251Z,9.82
2023-03-31T03:21:39.848Z,9.82
2023-03-31T03:22:40.234Z,9.82
2023-03-31T03:23:39.529Z,9.82
2023-03-31T03:24:39.948Z,9.82
2023-03-31T03:25:39.963Z,9.83
2023-03-31T03:26:39.986Z,9.85
2023-03-31T03:27:40.197Z,9.86
2023-03-31T03:28:40.156Z,9.87
2023-03-31T03:29:40.142Z,9.87
2023-03-31T03:30:40.173Z,9.86
2023-03-31T03:31:40.061Z,9.85
2023-03-31T03:32:40.066Z,9.85
2023-03-31T03:33:40.073Z,9.87
2023-03-31T03:34:40.822Z,9.87
2023-03-31T03:35:40.771Z,9.88
2023-03-31T03:36:40.780Z,9.88
2023-03-31T03:37:40.754Z,9.89
2023-03-31T03:38:40.726Z,9.88
2023-03-31T03:39:40.715Z,9.88
2023-03-31T03:40:40.698Z,9.88
2023-03-31T03:41:40.685Z,9.87
2023-03-31T03:42:40.686Z,9.88
2023-03-31T03:43:40.664Z,9.88
2023-03-31T03:44:40.658Z,9.88
2023-03-31T03:45:40.634Z,9.87
2023-03-31T03:46:40.713Z,9.88
2023-03-31T03:47:40.639Z,9.88
2023-03-31T03:48:39.880Z,9.87
2023-03-31T03:49:40.576Z,9.87
2023-03-31T03:50:40.574Z,9.86
2023-03-31T03:51:40.068Z,9.85
2023-03-31T03:52:39.796Z,9.84
2023-03-31T03:53:39.803Z,9.83
2023-03-31T03:54:39.803Z,9.81
2023-03-31T03:55:39.778Z,9.80
2023-03-31T03:56:39.068Z,9.80
2023-03-31T03:57:40.440Z,9.79
2023-03-31T03:58:39.727Z,9.78
2023-03-31T03:59:39.730Z,9.78
2023-03-31T04:00:39.711Z,9.77
2023-03-31T04:01:39.716Z,9.76
2023-03-31T04:02:40.055Z,9.75
2023-03-31T04:03:39.660Z,9.74
2023-03-31T04:04:39.658Z,9.74
2023-03-31T04:05:40.303Z,9.74
2023-03-31T04:06:39.622Z,9.74
2023-03-31T04:07:39.568Z,9.75
2023-03-31T04:08:40.262Z,9.75
2023-03-31T04:09:39.589Z,9.75
2023-03-31T04:10:39.560Z,9.74
2023-03-31T04:11:39.538Z,9.74
2023-03-31T04:12:39.515Z,9.73
2023-03-31T04:13:39.508Z,9.72
2023-03-31T04:14:39.496Z,9.71
2023-03-31T04:15:39.502Z,9.71
2023-03-31T04:16:39.479Z,9.70
2023-03-31T04:17:39.432Z,9.69
2023-03-31T04:18:39.463Z,9.68
2023-03-31T04:19:40.096Z,9.67
2023-03-31T04:20:39.416Z,9.66
2023-03-31T04:21:39.421Z,9.65
2023-03-31T04:22:39.366Z,9.64
2023-03-31T04:23:39.380Z,9.64
2023-03-31T04:24:39.367Z,9.64
2023-03-31T04:25:39.388Z,9.64
2023-03-31T04:26:39.338Z,9.64
2023-03-31T04:27:39.082Z,9.64
2023-03-31T04:28:39.078Z,9.64
2023-03-31T04:29:39.962Z,9.64
2023-03-31T04:30:39.279Z,9.64
2023-03-31T04:31:39.294Z,9.64
2023-03-31T04:32:39.264Z,9.64
2023-03-31T04:33:39.933Z,9.64
2023-03-31T04:34:39.228Z,9.63
2023-03-31T04:35:39.127Z,9.63
2023-03-31T04:36:38.627Z,9.64
2023-03-31T04:37:38.444Z,9.65
2023-03-31T04:38:39.147Z,9.65
2023-03-31T04:39:39.184Z,9.65
2023-03-31T04:40:39.136Z,9.66
2023-03-31T04:41:38.414Z,9.67
2023-03-31T04:42:39.129Z,9.67
2023-03-31T04:43:38.430Z,9.67
2023-03-31T04:44:38.423Z,9.67
2023-03-31T04:45:39.122Z,9.67
2023-03-31T04:46:39.054Z,9.66
2023-03-31T04:47:39.152Z,9.66
2023-03-31T04:48:39.725Z,9.67
2023-03-31T04:49:39.017Z,9.67
2023-03-31T04:50:38.992Z,9.67
2023-03-31T04:51:38.998Z,9.67
2023-03-31T04:52:38.974Z,9.67
2023-03-31T04:53:39.200Z,9.67
2023-03-31T04:54:38.942Z,9.67
2023-03-31T04:55:38.941Z,9.67
2023-03-31T04:56:39.611Z,9.67
2023-03-31T04:57:38.903Z,9.67
2023-03-31T04:58:38.867Z,9.68
2023-03-31T04:59:38.890Z,9.69
2023-03-31T05:00:38.866Z,9.71
2023-03-31T05:01:38.895Z,9.72
2023-03-31T05:02:38.905Z,9.74
2023-03-31T05:03:38.832Z,9.75
2023-03-31T05:04:38.805Z,9.77
2023-03-31T05:05:38.813Z,9.78
2023-03-31T05:06:39.460Z,9.80
2023-03-31T05:07:39.458Z,9.79
2023-03-31T05:08:38.740Z,9.80
2023-03-31T05:09:38.778Z,9.80
2023-03-31T05:10:39.457Z,9.80
2023-03-31T05:11:38.959Z,9.80
2023-03-31T05:12:38.706Z,9.81
2023-03-31T05:13:38.659Z,9.83
2023-03-31T05:14:38.686Z,9.84
2023-03-31T05:15:38.676Z,9.86
2023-03-31T05:16:38.066Z,9.90
2023-03-31T05:17:38.691Z,9.98
2023-03-31T05:18:38.600Z,10.06
2023-03-31T05:19:39.284Z,10.10
2023-03-31T05:20:38.590Z,10.11
2023-03-31T05:21:38.596Z,10.10
2023-03-31T05:22:38.602Z,10.15
2023-03-31T05:23:39.240Z,10.18
2023-03-31T05:24:38.561Z,10.19
2023-03-31T05:25:38.530Z,10.21
2023-03-31T05:26:38.502Z,10.22
2023-03-31T05:27:38.501Z,10.22
2023-03-31T05:28:38.491Z,10.25
2023-03-31T05:29:38.462Z,10.26
2023-03-31T05:30:38.452Z,10.25
2023-03-31T05:31:38.548Z,10.22
2023-03-31T05:32:38.497Z,10.20
2023-03-31T05:33:38.397Z,10.20
2023-03-31T05:34:38.460Z,10.20
2023-03-31T05:35:38.452Z,10.20
2023-03-31T05:36:38.152Z,10.21
2023-03-31T05:37:38.148Z,10.21
2023-03-31T05:38:38.178Z,10.23
2023-03-31T05:39:38.004Z,10.25
2023-03-31T05:40:38.158Z,10.27
2023-03-31T05:41:38.147Z,10.28
2023-03-31T05:42:38.271Z,10.30
2023-03-31T05:43:38.277Z,10.32
2023-03-31T05:44:38.941Z,10.33
2023-03-31T05:45:38.150Z,10.37
2023-03-31T05:46:38.276Z,10.42
2023-03-31T05:47:38.271Z,10.45
2023-03-31T05:48:38.143Z,10.45
2023-03-31T05:49:38.172Z,10.45
2023-03-31T05:50:38.851Z,10.45
2023-03-31T05:51:38.202Z,10.45
2023-03-31T05:52:38.150Z,10.46
2023-03-31T05:53:38.124Z,10.50
2023-03-31T05:54:38.800Z,10.56
2023-03-31T05:55:37.539Z,10.60
2023-03-31T05:56:38.109Z,10.60
2023-03-31T05:57:38.071Z,10.58
2023-03-31T05:58:38.078Z,10.59
2023-03-31T05:59:38.029Z,10.58
2023-03-31T06:00:38.711Z,10.58
2023-03-31T06:01:38.114Z,10.58
2023-03-31T06:02:38.124Z,10.59
2023-03-31T06:03:37.873Z,10.59
2023-03-31T06:04:37.917Z,10.58
2023-03-31T06:05:37.827Z,10.58
2023-03-31T06:06:37.962Z,10.61
2023-03-31T06:07:37.944Z,10.63
2023-03-31T06:08:38.595Z,10.66
2023-03-31T06:09:37.898Z,10.67
2023-03-31T06:10:37.890Z,10.67
2023-03-31T06:11:37.930Z,10.67
2023-03-31T06:12:37.890Z,10.68
2023-03-31T06:13:37.851Z,10.71
2023-03-31T06:14:37.867Z,10.74
2023-03-31T06:15:37.856Z,10.77
2023-03-31T06:16:37.819Z,10.80
2023-03-31T06:17:38.829Z,10.81
2023-03-31T06:18:37.795Z,10.82
2023-03-31T06:19:37.748Z,10.83
2023-03-31T06:20:37.529Z,10.85
2023-03-31T06:21:37.754Z,10.89
2023-03-31T06:22:37.733Z,10.96
2023-03-31T06:23:38.388Z,11.01
2023-03-31T06:24:37.695Z,11.04
2023-03-31T06:25:48.131Z,11.06
2023-03-31T06:26:38.682Z,11.08
2023-03-31T06:27:37.181Z,11.12
2023-03-31T06:28:38.324Z,11.17
2023-03-31T06:29:37.181Z,11.21
2023-03-31T06:30:38.298Z,11.21
2023-03-31T06:31:37.645Z,11.19
2023-03-31T06:32:37.627Z,11.17
2023-03-31T06:33:37.579Z,11.15
2023-03-31T06:34:37.655Z,11.15
2023-03-31T06:35:37.620Z,11.15
2023-03-31T06:36:37.540Z,11.14
2023-03-31T06:37:37.193Z,11.14
2023-03-31T06:38:37.552Z,11.13
2023-03-31T06:39:38.184Z,11.15
2023-03-31T06:40:37.495Z,11.17
2023-03-31T06:41:38.146Z,11.17
2023-03-31T06:42:37.467Z,11.19
2023-03-31T06:43:36.913Z,11.20
2023-03-31T06:44:37.404Z,11.21
2023-03-31T06:45:37.029Z,11.24
2023-03-31T06:46:37.271Z,11.29
2023-03-31T06:47:37.472Z,11.32
2023-03-31T06:48:37.414Z,11.32
2023-03-31T06:49:37.340Z,11.33
2023-03-31T06:50:37.390Z,11.32
2023-03-31T06:51:37.372Z,11.32
2023-03-31T06:52:37.330Z,11.32
2023-03-31T06:53:36.590Z,11.33
2023-03-31T06:54:37.270Z,11.33
2023-03-31T06:55:37.287Z,11.33
2023-03-31T06:56:37.215Z,11.32
2023-03-31T06:57:37.257Z,11.31
2023-03-31T06:58:37.942Z,11.27
2023-03-31T06:59:37.203Z,11.24
2023-03-31T07:00:37.902Z,11.22
2023-03-31T07:01:36.657Z,11.20
2023-03-31T07:02:37.999Z,11.16
2023-03-31T07:03:37.955Z,11.11
2023-03-31T07:04:37.962Z,11.04
2023-03-31T07:05:37.158Z,10.99
2023-03-31T07:06:37.830Z,10.96
2023-03-31T07:07:37.795Z,10.97
2023-03-31T07:08:37.097Z,11.00
2023-03-31T07:09:36.544Z,11.04
2023-03-31T07:10:37.093Z,11.06
2023-03-31T07:11:37.746Z,11.10
2023-03-31T07:12:37.725Z,11.14
2023-03-31T07:13:37.029Z,11.17
2023-03-31T07:14:37.062Z,11.22
2023-03-31T07:15:37.020Z,11.27
2023-03-31T07:16:37.028Z,11.31
2023-03-31T07:17:36.295Z,11.34
2023-03-31T07:18:36.965Z,11.40
2023-03-31T07:19:36.935Z,11.43
2023-03-31T07:20:36.928Z,11.40
2023-03-31T07:21:36.937Z,11.36
2023-03-31T07:22:36.951Z,11.32
2023-03-31T07:23:36.889Z,11.31
2023-03-31T07:24:36.870Z,11.31
2023-03-31T07:25:36.148Z,11.29
2023-03-31T07:26:36.848Z,11.26
2023-03-31T07:27:36.894Z,11.22
2023-03-31T07:28:36.819Z,11.19
2023-03-31T07:29:37.546Z,11.19
2023-03-31T07:30:36.809Z,11.20
2023-03-31T07:31:36.804Z,11.24
2023-03-31T07:32:37.477Z,11.33
2023-03-31T07:33:36.817Z,11.42
2023-03-31T07:34:37.762Z,11.51
2023-03-31T07:35:36.768Z,11.54
2023-03-31T07:36:36.741Z,11.52
2023-03-31T07:37:36.716Z,11.47
2023-03-31T07:38:36.721Z,11.45
2023-03-31T07:39:36.653Z,11.45
2023-03-31T07:40:36.884Z,11.45
2023-03-31T07:41:37.316Z,11.48
2023-03-31T07:42:36.637Z,11.45
2023-03-31T07:43:36.611Z,11.42
2023-03-31T07:44:37.060Z,11.38
2023-03-31T07:45:36.669Z,11.39
2023-03-31T07:46:36.681Z,11.43
2023-03-31T07:47:36.613Z,11.47
2023-03-31T07:48:36.545Z,11.50
2023-03-31T07:49:36.511Z,11.47
2023-03-31T07:50:36.517Z,11.44
2023-03-31T07:51:36.508Z,11.41
2023-03-31T07:52:36.250Z,11.41
2023-03-31T07:53:36.238Z,11.41
2023-03-31T07:54:36.254Z,11.45
2023-03-31T07:55:36.454Z,11.52
2023-03-31T07:56:36.450Z,11.55
2023-03-31T07:57:36.275Z,11.52
2023-03-31T07:58:37.082Z,11.52
2023-03-31T07:59:36.380Z,11.50
2023-03-31T08:00:36.113Z,11.52
2023-03-31T08:01:36.381Z,11.53
2023-03-31T08:02:36.499Z,11.58
2023-03-31T08:03:36.281Z,11.70
2023-03-31T08:04:36.516Z,11.79
2023-03-31T08:05:35.584Z,11.78
2023-03-31T08:06:36.291Z,11.76
2023-03-31T08:07:36.277Z,11.71
2023-03-31T08:08:36.996Z,11.72
2023-03-31T08:09:36.984Z,11.78
2023-03-31T08:10:36.236Z,11.86
2023-03-31T08:11:35.613Z,11.90
2023-03-31T08:12:36.208Z,11.91
2023-03-31T08:13:36.200Z,11.90
2023-03-31T08:14:41.198Z,11.88
2023-03-31T08:15:37.138Z,11.83
2023-03-31T08:16:36.950Z,11.77
2023-03-31T08:17:36.175Z,11.69
2023-03-31T08:18:36.129Z,11.65
2023-03-31T08:19:35.893Z,11.58
2023-03-31T08:20:36.097Z,11.49
2023-03-31T08:21:36.078Z,11.42
2023-03-31T08:22:36.070Z,11.33
2023-03-31T08:23:36.067Z,11.26
2023-03-31T08:24:36.087Z,11.20
2023-03-31T08:25:36.271Z,11.13
2023-03-31T08:26:36.022Z,11.08
2023-03-31T08:27:35.270Z,11.04
2023-03-31T08:28:35.990Z,11.01
2023-03-31T08:29:35.989Z,11.00
2023-03-31T08:30:35.928Z,10.99
2023-03-31T08:31:36.032Z,10.98
2023-03-31T08:32:35.998Z,10.97
2023-03-31T08:33:35.918Z,10.95
2023-03-31T08:34:36.586Z,10.93
2023-03-31T08:35:35.241Z,10.92
2023-03-31T08:36:35.920Z,10.93
2023-03-31T08:37:35.859Z,10.95
2023-03-31T08:38:36.535Z,10.95
2023-03-31T08:39:35.870Z,10.93
2023-03-31T08:40:35.812Z,10.95
2023-03-31T08:41:35.806Z,10.99
2023-03-31T08:42:35.797Z,10.98
2023-03-31T08:43:35.069Z,10.96
2023-03-31T08:44:36.434Z,10.97
2023-03-31T08:45:35.746Z,10.97
2023-03-31T08:46:35.802Z,10.98
2023-03-31T08:47:35.766Z,11.02
2023-03-31T08:48:35.714Z,11.04
2023-03-31T08:49:35.722Z,11.05
2023-03-31T08:50:35.658Z,11.10
2023-03-31T08:51:35.289Z,11.15
2023-03-31T08:52:35.680Z,11.22
2023-03-31T08:53:36.361Z,11.26
2023-03-31T08:54:35.671Z,11.33
2023-03-31T08:55:35.601Z,11.41
2023-03-31T08:56:35.604Z,11.50
2023-03-31T08:57:35.587Z,11.60
2023-03-31T08:58:35.584Z,11.77
2023-03-31T08:59:35.106Z,11.97
2023-03-31T09:00:35.559Z,12.09
2023-03-31T09:01:47.968Z,12.25
2023-03-31T09:02:36.608Z,12.40
2023-03-31T09:03:35.575Z,12.43
2023-03-31T09:04:35.252Z,12.72
2023-03-31T09:05:39.170Z,13.15
2023-03-31T09:06:36.175Z,13.58
2023-03-31T09:07:35.320Z,14.38
2023-03-31T09:08:35.432Z,14.89
2023-03-31T09:09:36.107Z,14.91
2023-03-31T09:10:35.386Z,14.70
2023-03-31T09:11:35.391Z,14.43
2023-03-31T09:12:34.643Z,14.18
2023-03-31T09:13:35.374Z,13.88
2023-03-31T09:14:35.346Z,13.76
2023-03-31T09:15:34.656Z,13.59
2023-03-31T09:16:35.368Z,13.48
2023-03-31T09:17:35.328Z,13.52
2023-03-31T09:18:35.294Z,13.72
2023-03-31T09:19:35.315Z,13.80
2023-03-31T09:20:35.305Z,13.86
2023-03-31T09:21:36.832Z,13.95
2023-03-31T09:22:35.240Z,13.99
2023-03-31T09:23:35.221Z,14.11
2023-03-31T09:24:35.203Z,14.03
2023-03-31T09:25:35.188Z,13.79
2023-03-31T09:26:35.173Z,13.58
2023-03-31T09:27:35.165Z,13.41
2023-03-31T09:28:35.166Z,13.21
2023-03-31T09:29:35.144Z,13.08
2023-03-31T09:30:35.166Z,12.96
2023-03-31T09:31:35.138Z,12.96
2023-03-31T09:32:35.815Z,13.06
2023-03-31T09:33:35.104Z,13.14
2023-03-31T09:34:35.082Z,13.18
2023-03-31T09:35:35.104Z,13.27
2023-03-31T09:36:35.030Z,13.51
2023-03-31T09:37:35.040Z,14.01
2023-03-31T09:38:35.013Z,14.40
2023-03-31T09:39:35.013Z,14.49
2023-03-31T09:40:34.980Z,14.59
2023-03-31T09:41:34.950Z,14.42
2023-03-31T09:42:34.969Z,14.12
2023-03-31T09:43:35.631Z,13.94
2023-03-31T09:44:34.929Z,13.86
2023-03-31T09:45:34.920Z,13.83
2023-03-31T09:46:34.909Z,14.05
2023-03-31T09:47:34.913Z,14.19
2023-03-31T09:48:34.896Z,14.20
2023-03-31T09:49:35.084Z,14.07
2023-03-31T09:50:34.841Z,13.86
2023-03-31T09:51:34.834Z,13.66
2023-03-31T09:52:34.812Z,13.45
2023-03-31T09:53:34.806Z,13.38
2023-03-31T09:54:34.815Z,13.34
2023-03-31T09:55:40.163Z,13.23
2023-03-31T09:56:35.784Z,13.10
2023-03-31T09:57:34.892Z,12.91
2023-03-31T09:58:34.730Z,12.69
2023-03-31T09:59:34.726Z,12.52
2023-03-31T10:00:34.716Z,12.35
2023-03-31T10:01:34.726Z,12.16
2023-03-31T10:02:35.370Z,12.01
2023-03-31T10:03:34.663Z,11.87
2023-03-31T10:04:34.473Z,11.71
2023-03-31T10:05:34.640Z,11.57
2023-03-31T10:06:35.326Z,11.44
2023-03-31T10:07:34.602Z,11.37
2023-03-31T10:08:34.603Z,11.32
2023-03-31T10:09:34.441Z,11.26
2023-03-31T10:10:34.364Z,11.22
2023-03-31T10:11:34.569Z,11.22
2023-03-31T10:12:34.360Z,11.27
2023-03-31T10:13:35.205Z,11.38
2023-03-31T10:14:34.530Z,11.58
2023-03-31T10:15:35.258Z,11.82
2023-03-31T10:16:34.431Z,11.89
2023-03-31T10:17:47.057Z,11.91
2023-03-31T10:18:34.798Z,11.94
2023-03-31T10:19:34.406Z,11.99
2023-03-31T10:20:34.401Z,12.00
2023-03-31T10:21:35.096Z,12.04
2023-03-31T10:22:35.368Z,12.14
2023-03-31T10:23:34.380Z,12.26
2023-03-31T10:24:34.384Z,12.50
2023-03-31T10:25:35.078Z,12.81
2023-03-31T10:26:35.079Z,13.53
2023-03-31T10:27:33.606Z,14.04
2023-03-31T10:28:34.373Z,14.13
2023-03-31T10:29:34.310Z,14.40
2023-03-31T10:30:34.333Z,15.02
2023-03-31T10:31:34.330Z,15.57
2023-03-31T10:32:34.317Z,15.61
2023-03-31T10:33:35.108Z,15.10
2023-03-31T10:34:33.788Z,14.57
2023-03-31T10:35:34.276Z,14.06
2023-03-31T10:36:34.206Z,13.71
2023-03-31T10:37:34.418Z,13.94
2023-03-31T10:38:34.182Z,13.74
2023-03-31T10:39:33.944Z,13.47
2023-03-31T10:40:34.194Z,13.37
2023-03-31T10:41:34.128Z,13.70
2023-03-31T10:42:34.095Z,13.91
2023-03-31T10:43:34.113Z,13.85
2023-03-31T10:44:34.084Z,13.75
2023-03-31T10:45:38.067Z,13.63
2023-03-31T10:46:34.096Z,13.49
2023-03-31T10:47:34.759Z,13.37
2023-03-31T10:48:34.063Z,13.19
2023-03-31T10:49:34.067Z,12.99
2023-03-31T10:50:34.005Z,12.80
2023-03-31T10:51:34.001Z,12.65
2023-03-31T10:52:33.963Z,12.51
2023-03-31T10:53:33.967Z,12.35
2023-03-31T10:54:33.954Z,12.16
2023-03-31T10:55:33.934Z,12.05
2023-03-31T10:56:33.923Z,11.93
2023-03-31T10:57:33.974Z,11.90
2023-03-31T10:58:33.894Z,11.86
2023-03-31T10:59:33.876Z,11.81
2023-03-31T11:00:34.555Z,11.80
2023-03-31T11:01:33.899Z,11.84
2023-03-31T11:02:33.887Z,11.81
2023-03-31T11:03:33.901Z,11.77
2023-03-31T11:04:34.511Z,11.71
2023-03-31T11:05:33.811Z,11.66
2023-03-31T11:06:33.399Z,11.59
2023-03-31T11:07:33.785Z,11.53
2023-03-31T11:08:33.159Z,11.47
2023-03-31T11:09:33.738Z,11.45
2023-03-31T11:10:34.429Z,11.45
2023-03-31T11:11:33.726Z,11.41
2023-03-31T11:12:33.683Z,11.40
2023-03-31T11:13:33.807Z,11.41
2023-03-31T11:14:33.729Z,11.40
2023-03-31T11:15:33.696Z,11.38
2023-03-31T11:16:33.823Z,11.42
2023-03-31T11:17:33.655Z,11.48
2023-03-31T11:18:34.299Z,11.58
2023-03-31T11:19:33.609Z,11.69
2023-03-31T11:20:33.634Z,12.11
2023-03-31T11:21:33.587Z,13.00
2023-03-31T11:22:33.160Z,14.07
2023-03-31T11:23:34.237Z,14.77
2023-03-31T11:24:33.535Z,14.67
2023-03-31T11:25:33.535Z,14.68
2023-03-31T11:26:33.503Z,14.84
2023-03-31T11:27:33.527Z,15.12
2023-03-31T11:28:33.465Z,15.37
2023-03-31T11:29:33.466Z,15.51
2023-03-31T11:30:33.442Z,15.77
2023-03-31T11:31:33.527Z,16.05
2023-03-31T11:32:32.813Z,16.08
2023-03-31T11:33:33.428Z,15.73
2023-03-31T11:34:33.403Z,15.12
2023-03-31T11:35:32.798Z,15.23
2023-03-31T11:36:33.372Z,15.71
2023-03-31T11:37:33.389Z,16.29
2023-03-31T11:38:34.023Z,16.32
2023-03-31T11:39:33.326Z,16.29
2023-03-31T11:40:33.325Z,16.94
2023-03-31T11:41:33.331Z,17.31
2023-03-31T11:42:33.376Z,17.71
2023-03-31T11:43:33.283Z,17.45
2023-03-31T11:44:33.276Z,17.15
2023-03-31T11:45:32.774Z,17.04
2023-03-31T11:46:33.354Z,16.91
2023-03-31T11:47:33.331Z,16.33
2023-03-31T11:48:32.468Z,15.97
2023-03-31T11:49:33.207Z,15.52
2023-03-31T11:50:33.192Z,15.22
2023-03-31T11:51:33.198Z,15.27
2023-03-31T11:52:33.904Z,15.83
2023-03-31T11:53:33.128Z,16.21
2023-03-31T11:54:33.121Z,16.21
2023-03-31T11:55:33.109Z,16.52
2023-03-31T11:56:33.764Z,16.56
2023-03-31T11:57:33.210Z,16.79
2023-03-31T11:58:33.057Z,17.08
2023-03-31T11:59:33.040Z,17.30
2023-03-31T12:00:33.100Z,17.21
2023-03-31T12:01:33.045Z,17.24
2023-03-31T12:02:33.030Z,17.33
2023-03-31T12:03:33.717Z,17.39
2023-03-31T12:04:32.960Z,17.48
2023-03-31T12:05:33.032Z,17.55
2023-03-31T12:06:32.948Z,17.22
2023-03-31T12:07:32.957Z,17.45
2023-03-31T12:08:32.932Z,17.20
2023-03-31T12:09:32.887Z,17.11
2023-03-31T12:10:32.905Z,17.01
2023-03-31T12:11:32.881Z,17.08
2023-03-31T12:12:32.866Z,16.96
2023-03-31T12:13:32.857Z,16.43
2023-03-31T12:14:32.842Z,15.62
2023-03-31T12:15:33.009Z,15.44
2023-03-31T12:16:32.927Z,15.53
2023-03-31T12:17:32.841Z,15.46
2023-03-31T12:18:32.796Z,15.48
2023-03-31T12:19:32.793Z,15.25
2023-03-31T12:20:32.764Z,15.16
2023-03-31T12:21:32.769Z,15.64
2023-03-31T12:22:32.744Z,16.30
2023-03-31T12:23:32.099Z,17.09
2023-03-31T12:24:32.689Z,17.80
2023-03-31T12:25:32.701Z,17.87
2023-03-31T12:26:32.506Z,17.31
2023-03-31T12:27:32.462Z,16.68
2023-03-31T12:28:32.466Z,15.87
2023-03-31T12:29:32.632Z,15.33
2023-03-31T12:30:32.627Z,15.04
2023-03-31T12:31:32.628Z,14.85
2023-03-31T12:32:33.297Z,14.68
2023-03-31T12:33:32.579Z,14.50
2023-03-31T12:34:32.485Z,14.40
2023-03-31T12:35:32.582Z,14.31
2023-03-31T12:36:32.116Z,14.28
2023-03-31T12:37:33.266Z,14.12
2023-03-31T12:38:32.530Z,14.16
2023-03-31T12:39:32.483Z,14.09
2023-03-31T12:40:33.278Z,13.96
2023-03-31T12:41:32.489Z,13.85
2023-03-31T12:42:32.474Z,13.79
2023-03-31T12:43:33.152Z,13.74
2023-03-31T12:44:32.451Z,13.76
2023-03-31T12:45:33.144Z,13.74
2023-03-31T12:46:33.250Z,13.69
2023-03-31T12:47:33.157Z,13.61
2023-03-31T12:48:33.092Z,13.55
2023-03-31T12:49:32.367Z,13.50
2023-03-31T12:50:31.740Z,13.50
2023-03-31T12:51:32.335Z,13.43
2023-03-31T12:52:32.328Z,13.33
2023-03-31T12:53:32.369Z,12.96
2023-03-31T12:54:32.311Z,12.25
2023-03-31T12:55:32.258Z,11.68
2023-03-31T12:56:32.269Z,11.25
2023-03-31T12:57:32.330Z,11.03